createdAt,value
2023-01-21T00:00:00.501Z,7.8
2023-01-21T00:05:00.480Z,5.7
2023-01-21T00:10:00.569Z,4.3
2023-01-21T00:15:00.420Z,5.5
2023-01-21T00:20:00.506Z,5.4
2023-01-21T00:25:00.469Z,4.8
2023-01-21T00:30:00.509Z,7.1
2023-01-21T00:35:00.440Z,5.8
2023-01-21T00:40:00.595Z,5.9
2023-01-21T00:45:01.527Z,6.9
2023-01-21T00:50:00.505Z,7.2
2023-01-21T00:55:00.478Z,7.4
2023-01-21T01:00:01.649Z,9.0
2023-01-21T01:05:00.458Z,5.8
2023-01-21T01:10:00.511Z,7.4
2023-01-21T01:15:01.248Z,4.7
2023-01-21T01:20:00.500Z,7.4
2023-01-21T01:25:00.459Z,7.0
2023-01-21T01:30:00.549Z,4.2
2023-01-21T01:35:00.480Z,11.2
2023-01-21T01:40:00.509Z,10.0
2023-01-21T01:45:00.487Z,8.2
2023-01-21T01:50:00.501Z,7.4
2023-01-21T01:55:00.524Z,6.2
2023-01-21T02:00:00.501Z,11.2
2023-01-21T02:05:00.455Z,8.2
2023-01-21T02:10:00.496Z,4.9
2023-01-21T02:15:00.479Z,6.4
2023-01-21T02:20:00.504Z,2.5
2023-01-21T02:25:00.484Z,1.8
2023-01-21T02:30:00.490Z,0.5
2023-01-21T02:35:00.494Z,2.0
2023-01-21T02:40:00.558Z,0.4
2023-01-21T02:45:00.454Z,1.5
2023-01-21T02:50:00.516Z,2.1
2023-01-21T02:55:00.459Z,0.1
2023-01-21T03:00:00.532Z,0.0
2023-01-21T03:05:00.490Z,0.0
2023-01-21T03:10:00.508Z,1.1
2023-01-21T03:15:00.473Z,1.0
2023-01-21T03:20:00.501Z,1.4
2023-01-21T03:25:00.456Z,1.3
2023-01-21T03:30:00.554Z,1.6
2023-01-21T03:35:00.511Z,2.5
2023-01-21T03:40:00.488Z,1.1
2023-01-21T03:45:00.408Z,2.3
2023-01-21T03:50:00.514Z,1.5
2023-01-21T03:55:00.492Z,1.3
2023-01-21T04:00:00.515Z,1.0
2023-01-21T04:05:00.459Z,0.9
2023-01-21T04:10:00.508Z,1.2
2023-01-21T04:15:00.463Z,2.1
2023-01-21T04:20:00.517Z,1.0
2023-01-21T04:25:00.572Z,1.5
2023-01-21T04:30:00.486Z,2.3
2023-01-21T04:35:00.461Z,2.8
2023-01-21T04:40:00.494Z,2.6
2023-01-21T04:45:00.465Z,2.4
2023-01-21T04:50:00.508Z,1.8
2023-01-21T04:55:00.461Z,4.7
2023-01-21T05:00:00.495Z,2.6
2023-01-21T05:05:00.477Z,2.2
2023-01-21T05:10:00.508Z,3.4
2023-01-21T05:15:00.489Z,1.8
2023-01-21T05:20:02.486Z,2.7
2023-01-21T05:25:00.478Z,1.8
2023-01-21T05:30:00.505Z,4.0
2023-01-21T05:35:00.481Z,3.2
2023-01-21T05:40:00.505Z,4.0
2023-01-21T05:45:00.473Z,2.9
2023-01-21T05:50:00.491Z,2.8
2023-01-21T05:55:03.113Z,3.6
2023-01-21T06:00:00.532Z,2.6
2023-01-21T06:05:00.503Z,3.0
2023-01-21T06:10:00.493Z,0.8
2023-01-21T06:15:00.515Z,2.7
2023-01-21T06:20:00.521Z,3.7
2023-01-21T06:25:00.495Z,3.5
2023-01-21T06:30:00.531Z,4.3
2023-01-21T06:35:00.510Z,5.4
2023-01-21T06:40:00.508Z,8.0
2023-01-21T06:45:00.476Z,7.6
2023-01-21T06:50:00.530Z,10.3
2023-01-21T06:55:01.714Z,11.5
2023-01-21T07:00:00.512Z,9.5
2023-01-21T07:05:00.599Z,14.4
2023-01-21T07:10:00.545Z,9.2
2023-01-21T07:15:00.462Z,12.8
2023-01-21T07:20:00.522Z,9.4
2023-01-21T07:25:00.468Z,11.1
2023-01-21T07:30:00.537Z,12.2
2023-01-21T07:35:00.473Z,8.9
2023-01-21T07:40:00.530Z,9.7
2023-01-21T07:45:00.496Z,10.5
2023-01-21T07:50:00.521Z,12.1
2023-01-21T07:55:00.535Z,9.3
2023-01-21T08:00:00.496Z,7.1
2023-01-21T08:05:00.467Z,5.8
2023-01-21T08:10:00.533Z,11.6
2023-01-21T08:15:00.468Z,10.9
2023-01-21T08:20:00.528Z,7.0
2023-01-21T08:25:00.460Z,10.5
2023-01-21T08:30:00.524Z,10.3
2023-01-21T08:35:00.506Z,5.8
2023-01-21T08:40:00.541Z,6.4
2023-01-21T08:45:00.539Z,6.3
2023-01-21T08:50:00.515Z,5.6
2023-01-21T08:55:00.478Z,4.7
2023-01-21T09:00:00.507Z,3.7
2023-01-21T09:05:00.565Z,5.9
2023-01-21T09:10:00.529Z,4.7
2023-01-21T09:15:00.462Z,5.2
2023-01-21T09:20:00.632Z,3.8
2023-01-21T09:25:00.486Z,3.0
2023-01-21T09:30:00.589Z,3.7
2023-01-21T09:35:00.475Z,4.8
2023-01-21T09:40:00.533Z,4.7
2023-01-21T09:45:00.483Z,4.1
2023-01-21T09:50:02.736Z,5.9
2023-01-21T09:55:00.459Z,6.2
2023-01-21T10:00:00.536Z,5.8
2023-01-21T10:05:00.488Z,5.8
2023-01-21T10:10:00.516Z,5.6
2023-01-21T10:15:00.496Z,4.7
2023-01-21T10:20:00.537Z,5.4
2023-01-21T10:25:00.455Z,4.9
2023-01-21T10:30:00.495Z,6.6
2023-01-21T10:35:00.479Z,6.3
2023-01-21T10:40:00.547Z,6.5
2023-01-21T10:45:00.500Z,7.6
2023-01-21T10:50:00.521Z,5.4
2023-01-21T10:55:00.535Z,5.3
2023-01-21T11:00:00.494Z,5.3
2023-01-21T11:05:00.484Z,7.7
2023-01-21T11:10:02.502Z,8.7
2023-01-21T11:15:00.452Z,5.8
2023-01-21T11:20:00.721Z,8.3
2023-01-21T11:25:00.486Z,8.9
2023-01-21T11:30:00.732Z,7.5
2023-01-21T11:35:00.484Z,7.4
2023-01-21T11:40:00.515Z,6.9
2023-01-21T11:45:00.532Z,6.8
2023-01-21T11:50:00.506Z,9.1
2023-01-21T11:55:00.418Z,11.1
2023-01-21T12:00:02.464Z,7.3
2023-01-21T12:05:00.461Z,9.3
2023-01-21T12:10:00.515Z,9.0
2023-01-21T12:15:00.677Z,8.0
2023-01-21T12:20:00.510Z,9.4
2023-01-21T12:25:00.483Z,9.6
2023-01-21T12:30:00.605Z,8.9
2023-01-21T12:35:00.455Z,9.9
2023-01-21T12:40:00.491Z,8.3
2023-01-21T12:45:00.541Z,9.0
2023-01-21T12:50:00.521Z,11.1
2023-01-21T12:55:02.469Z,6.6
2023-01-21T13:00:00.514Z,9.9
2023-01-21T13:05:00.557Z,8.7
2023-01-21T13:10:00.498Z,7.6
2023-01-21T13:15:00.541Z,6.7
2023-01-21T13:20:00.690Z,8.7
2023-01-21T13:25:00.488Z,7.0
2023-01-21T13:30:00.627Z,6.4
2023-01-21T13:35:00.524Z,7.7
2023-01-21T13:40:00.536Z,12.6
2023-01-21T13:45:00.667Z,11.9
2023-01-21T13:50:00.680Z,9.4
2023-01-21T13:55:00.498Z,9.3
2023-01-21T14:00:00.592Z,10.6
2023-01-21T14:05:00.496Z,9.4
2023-01-21T14:10:00.536Z,9.8
2023-01-21T14:15:00.529Z,11.5
2023-01-21T14:20:00.549Z,11.3
2023-01-21T14:25:00.458Z,7.9
2023-01-21T14:30:00.559Z,12.8
2023-01-21T14:35:00.534Z,11.9
2023-01-21T14:40:00.514Z,11.3
2023-01-21T14:45:00.578Z,12.0
2023-01-21T14:50:00.543Z,11.5
2023-01-21T14:55:00.503Z,11.4
2023-01-21T15:00:00.544Z,11.1
2023-01-21T15:05:00.456Z,8.1
2023-01-21T15:10:00.526Z,10.8
2023-01-21T15:15:00.455Z,11.9
2023-01-21T15:20:00.536Z,13.0
2023-01-21T15:25:00.476Z,13.2
2023-01-21T15:30:00.711Z,12.5
2023-01-21T15:35:00.538Z,11.5
2023-01-21T15:40:00.685Z,11.4
2023-01-21T15:45:00.505Z,13.5
2023-01-21T15:50:00.568Z,11.4
2023-01-21T15:55:00.580Z,13.1
2023-01-21T16:00:00.557Z,14.6
2023-01-21T16:05:00.522Z,13.7
2023-01-21T16:10:00.498Z,11.4
2023-01-21T16:15:00.491Z,12.1
2023-01-21T16:20:00.503Z,15.4
2023-01-21T16:25:00.462Z,12.8
2023-01-21T16:30:00.582Z,13.8
2023-01-21T16:35:00.480Z,13.9
2023-01-21T16:40:00.518Z,14.9
2023-01-21T16:45:02.504Z,14.3
2023-01-21T16:50:02.978Z,9.3
2023-01-21T16:55:00.516Z,14.4
2023-01-21T17:00:00.544Z,13.9
2023-01-21T17:05:00.514Z,11.7
2023-01-21T17:10:00.521Z,10.7
2023-01-21T17:15:00.517Z,9.7
2023-01-21T17:20:00.597Z,7.6
2023-01-21T17:25:00.479Z,11.0
2023-01-21T17:30:00.543Z,10.1
2023-01-21T17:35:00.463Z,9.4
2023-01-21T17:40:00.619Z,11.4
2023-01-21T17:45:00.465Z,11.5
2023-01-21T17:50:00.520Z,11.0
2023-01-21T17:55:00.478Z,8.8
2023-01-21T18:00:00.579Z,13.0
2023-01-21T18:05:00.491Z,12.2
2023-01-21T18:10:00.508Z,11.2
2023-01-21T18:15:00.489Z,13.6
2023-01-21T18:20:00.582Z,12.9
2023-01-21T18:25:00.487Z,13.3
2023-01-21T18:30:00.554Z,8.9
2023-01-21T18:35:00.480Z,10.6
2023-01-21T18:40:00.507Z,12.0
2023-01-21T18:45:00.580Z,11.0
2023-01-21T18:50:00.591Z,8.7
2023-01-21T18:55:00.512Z,11.6
2023-01-21T19:00:00.534Z,8.4
2023-01-21T19:05:00.465Z,12.6
2023-01-21T19:10:00.524Z,8.1
2023-01-21T19:15:00.457Z,9.5
2023-01-21T19:20:00.519Z,12.8
2023-01-21T19:25:00.478Z,9.2
2023-01-21T19:30:00.531Z,11.6
2023-01-21T19:35:00.492Z,9.5
2023-01-21T19:40:00.564Z,9.1
2023-01-21T19:45:00.524Z,8.4
2023-01-21T19:50:00.514Z,8.9
2023-01-21T19:55:00.498Z,8.1
2023-01-21T20:00:00.620Z,9.6
2023-01-21T20:05:00.491Z,6.7
2023-01-21T20:10:00.517Z,9.7
2023-01-21T20:15:00.480Z,11.3
2023-01-21T20:20:00.585Z,8.5
2023-01-21T20:25:00.577Z,11.0
2023-01-21T20:30:15.843Z,8.0
2023-01-21T20:35:00.469Z,12.2
2023-01-21T20:40:00.514Z,9.8
2023-01-21T20:45:00.471Z,11.3
2023-01-21T20:50:00.512Z,12.8
2023-01-21T20:55:00.530Z,10.4
2023-01-21T21:00:00.531Z,10.3
2023-01-21T21:05:00.507Z,8.8
2023-01-21T21:10:00.579Z,10.6
2023-01-21T21:15:00.516Z,9.3
2023-01-21T21:20:02.480Z,10.8
2023-01-21T21:25:00.500Z,10.2
2023-01-21T21:30:00.603Z,10.1
2023-01-21T21:35:00.642Z,11.7
2023-01-21T21:40:00.517Z,15.2
2023-01-21T21:45:00.459Z,9.5
2023-01-21T21:50:03.238Z,10.8
2023-01-21T21:55:00.461Z,11.8
2023-01-21T22:00:00.506Z,11.4
2023-01-21T22:05:00.649Z,11.0
2023-01-21T22:10:00.513Z,11.0
2023-01-21T22:15:00.473Z,10.9
2023-01-21T22:20:00.524Z,8.0
2023-01-21T22:25:00.474Z,10.3
2023-01-21T22:30:01.786Z,11.9
2023-01-21T22:35:00.491Z,11.4
2023-01-21T22:40:00.558Z,7.9
2023-01-21T22:45:00.483Z,11.5
2023-01-21T22:50:00.517Z,12.3
2023-01-21T22:55:00.463Z,8.9
2023-01-21T23:00:02.640Z,7.8
2023-01-21T23:05:00.534Z,9.7
2023-01-21T23:10:00.489Z,9.4
2023-01-21T23:15:00.459Z,8.8
2023-01-21T23:20:00.508Z,10.7
2023-01-21T23:25:00.550Z,10.4
2023-01-21T23:30:00.509Z,11.2
2023-01-21T23:35:00.457Z,11.4
2023-01-21T23:40:00.523Z,11.7
2023-01-21T23:45:00.527Z,11.4
2023-01-21T23:50:00.563Z,6.5
2023-01-21T23:55:00.524Z,8.2
